sensor_id;sensor_type;location;lat;lon;timestamp;pressure;altitude;pressure_sealevel;temperature;humidity
53758;BME280;39674;59.860;30.672;2023-02-05T08:25:42;102903.50;;;-6.41;100.00
53758;BME280;39674;59.860;30.672;2023-02-05T08:28:56;102905.72;;;-6.47;100.00
53758;BME280;39674;59.860;30.672;2023-02-05T08:36:40;102920.19;;;-6.49;100.00
53758;BME280;39674;59.860;30.672;2023-02-05T08:46:09;102921.56;;;-6.71;100.00
53758;BME280;39674;59.860;30.672;2023-02-05T08:49:08;102914.16;;;-6.81;100.00
53758;BME280;39674;59.860;30.672;2023-02-05T08:51:51;102916.88;;;-6.78;100.00
53758;BME280;39674;59.860;30.672;2023-02-05T08:55:10;102914.50;;;-6.75;100.00
53758;BME280;39674;59.860;30.672;2023-02-05T09:11:18;102916.00;;;-6.79;100.00
53758;BME280;39674;59.860;30.672;2023-02-05T09:13:55;102923.66;;;-6.80;100.00
53758;BME280;39674;59.860;30.672;2023-02-05T09:16:29;102924.13;;;-6.71;100.00
53758;BME280;39674;59.860;30.672;2023-02-05T09:19:18;102917.75;;;-6.63;100.00
53758;BME280;39674;59.860;30.672;2023-02-05T09:21:55;102908.25;;;-6.64;100.00
53758;BME280;39674;59.860;30.672;2023-02-05T09:24:59;102901.06;;;-6.54;100.00
53758;BME280;39674;59.860;30.672;2023-02-05T09:27:55;102902.09;;;-6.51;100.00
53758;BME280;39674;59.860;30.672;2023-02-05T09:30:49;102907.78;;;-6.56;100.00
53758;BME280;39674;59.860;30.672;2023-02-05T09:33:45;102884.66;;;-6.56;100.00
53758;BME280;39674;59.860;30.672;2023-02-05T09:36:20;102889.59;;;-6.76;100.00
53758;BME280;39674;59.860;30.672;2023-02-05T09:38:55;102888.91;;;-6.88;100.00
53758;BME280;39674;59.860;30.672;2023-02-05T09:41:38;102888.03;;;-6.89;100.00
53758;BME280;39674;59.860;30.672;2023-02-05T09:44:19;102883.59;;;-6.91;100.00
53758;BME280;39674;59.860;30.672;2023-02-05T09:47:15;102894.34;;;-6.99;100.00
53758;BME280;39674;59.860;30.672;2023-02-05T09:49:54;102892.13;;;-6.93;100.00
53758;BME280;39674;59.860;30.672;2023-02-05T09:52:33;102881.03;;;-6.91;100.00
53758;BME280;39674;59.860;30.672;2023-02-05T12:27:24;102671.13;;;-6.59;100.00
53758;BME280;39674;59.860;30.672;2023-02-05T12:30:01;102672.56;;;-6.65;100.00
53758;BME280;39674;59.860;30.672;2023-02-05T12:32:35;102674.34;;;-6.64;100.00
53758;BME280;39674;59.860;30.672;2023-02-05T12:35:16;102673.16;;;-6.70;100.00
53758;BME280;39674;59.860;30.672;2023-02-05T12:38:03;102677.56;;;-6.68;100.00
53758;BME280;39674;59.860;30.672;2023-02-05T12:40:47;102682.72;;;-6.68;100.00
53758;BME280;39674;59.860;30.672;2023-02-05T12:43:42;102686.06;;;-6.69;100.00
53758;BME280;39674;59.860;30.672;2023-02-05T12:46:41;102673.88;;;-6.73;100.00
53758;BME280;39674;59.860;30.672;2023-02-05T12:49:22;102670.81;;;-6.66;100.00
53758;BME280;39674;59.860;30.672;2023-02-05T12:52:13;102661.97;;;-6.71;100.00
53758;BME280;39674;59.860;30.672;2023-02-05T12:54:53;102660.53;;;-6.66;100.00
53758;BME280;39674;59.860;30.672;2023-02-05T12:57:41;102656.19;;;-6.67;100.00
53758;BME280;39674;59.860;30.672;2023-02-05T13:00:20;102663.50;;;-6.58;100.00
53758;BME280;39674;59.860;30.672;2023-02-05T13:03:32;102655.72;;;-6.59;100.00
53758;BME280;39674;59.860;30.672;2023-02-05T13:07:00;102651.88;;;-6.68;100.00
53758;BME280;39674;59.860;30.672;2023-02-05T13:10:06;102657.00;;;-6.68;100.00
53758;BME280;39674;59.860;30.672;2023-02-05T13:13:09;102649.13;;;-6.71;100.00
53758;BME280;39674;59.860;30.672;2023-02-05T13:19:21;102642.72;;;-6.79;100.00
53758;BME280;39674;59.860;30.672;2023-02-05T13:22:33;102640.00;;;-6.82;100.00
53758;BME280;39674;59.860;30.672;2023-02-05T13:25:30;102640.78;;;-6.83;100.00
53758;BME280;39674;59.860;30.672;2023-02-05T13:28:51;102637.13;;;-6.88;100.00
53758;BME280;39674;59.860;30.672;2023-02-05T13:32:10;102635.19;;;-6.93;100.00
53758;BME280;39674;59.860;30.672;2023-02-05T13:35:02;102632.69;;;-6.91;100.00
53758;BME280;39674;59.860;30.672;2023-02-05T13:37:57;102634.97;;;-6.97;100.00
53758;BME280;39674;59.860;30.672;2023-02-05T13:44:13;102631.34;;;-7.01;100.00
53758;BME280;39674;59.860;30.672;2023-02-05T13:54:33;102613.72;;;-7.11;100.00
53758;BME280;39674;59.860;30.672;2023-02-05T14:01:12;102615.22;;;-7.15;100.00
53758;BME280;39674;59.860;30.672;2023-02-05T14:04:18;102618.19;;;-7.23;100.00
53758;BME280;39674;59.860;30.672;2023-02-05T14:16:46;102601.59;;;-7.30;100.00
53758;BME280;39674;59.860;30.672;2023-02-05T14:22:37;102567.16;;;-7.34;100.00
53758;BME280;39674;59.860;30.672;2023-02-05T14:29:17;102577.59;;;-7.31;100.00
53758;BME280;39674;59.860;30.672;2023-02-05T14:31:55;102574.69;;;-7.37;100.00
53758;BME280;39674;59.860;30.672;2023-02-05T14:34:47;102568.84;;;-7.34;100.00
53758;BME280;39674;59.860;30.672;2023-02-05T14:37:39;102561.38;;;-7.30;100.00
53758;BME280;39674;59.860;30.672;2023-02-05T14:40:25;102540.81;;;-7.30;100.00
53758;BME280;39674;59.860;30.672;2023-02-05T14:43:20;102533.72;;;-7.35;100.00
53758;BME280;39674;59.860;30.672;2023-02-05T14:46:18;102532.91;;;-7.34;100.00
53758;BME280;39674;59.860;30.672;2023-02-05T14:49:33;102545.81;;;-7.33;100.00
53758;BME280;39674;59.860;30.672;2023-02-05T14:52:31;102544.06;;;-7.34;100.00
53758;BME280;39674;59.860;30.672;2023-02-05T14:55:38;102543.88;;;-7.37;100.00
53758;BME280;39674;59.860;30.672;2023-02-05T14:59:02;102549.19;;;-7.34;100.00
53758;BME280;39674;59.860;30.672;2023-02-05T15:01:58;102549.19;;;-7.34;100.00
53758;BME280;39674;59.860;30.672;2023-02-05T15:05:07;102558.19;;;-7.26;100.00
53758;BME280;39674;59.860;30.672;2023-02-05T15:08:05;102552.72;;;-7.32;100.00
53758;BME280;39674;59.860;30.672;2023-02-05T15:10:53;102553.59;;;-7.31;100.00
53758;BME280;39674;59.860;30.672;2023-02-05T15:13:37;102534.75;;;-7.32;100.00
53758;BME280;39674;59.860;30.672;2023-02-05T15:16:20;102530.56;;;-7.30;100.00
53758;BME280;39674;59.860;30.672;2023-02-05T15:18:53;102527.84;;;-7.33;100.00
53758;BME280;39674;59.860;30.672;2023-02-05T15:21:40;102521.91;;;-7.32;100.00
53758;BME280;39674;59.860;30.672;2023-02-05T15:24:21;102520.22;;;-7.31;100.00
53758;BME280;39674;59.860;30.672;2023-02-05T15:27:23;102527.19;;;-7.29;100.00
53758;BME280;39674;59.860;30.672;2023-02-05T15:30:02;102524.47;;;-7.32;100.00
53758;BME280;39674;59.860;30.672;2023-02-05T15:32:41;102526.81;;;-7.36;100.00
53758;BME280;39674;59.860;30.672;2023-02-05T15:35:14;102527.53;;;-7.39;100.00
53758;BME280;39674;59.860;30.672;2023-02-05T15:38:07;102536.84;;;-7.41;100.00
53758;BME280;39674;59.860;30.672;2023-02-05T15:44:16;102549.75;;;-7.39;100.00
53758;BME280;39674;59.860;30.672;2023-02-05T15:47:01;102552.09;;;-7.44;100.00
53758;BME280;39674;59.860;30.672;2023-02-05T15:49:36;102546.38;;;-7.38;100.00
53758;BME280;39674;59.860;30.672;2023-02-05T15:52:34;102553.81;;;-7.43;100.00
53758;BME280;39674;59.860;30.672;2023-02-05T15:55:11;102555.47;;;-7.45;100.00
53758;BME280;39674;59.860;30.672;2023-02-05T16:00:54;102534.19;;;-7.43;100.00
53758;BME280;39674;59.860;30.672;2023-02-05T16:03:35;102533.47;;;-7.40;100.00
53758;BME280;39674;59.860;30.672;2023-02-05T16:06:17;102527.38;;;-7.42;100.00
53758;BME280;39674;59.860;30.672;2023-02-05T16:09:14;102514.84;;;-7.36;100.00
53758;BME280;39674;59.860;30.672;2023-02-05T16:11:48;102509.69;;;-7.36;100.00
53758;BME280;39674;59.860;30.672;2023-02-05T16:14:42;102511.34;;;-7.38;100.00
53758;BME280;39674;59.860;30.672;2023-02-05T16:17:18;102508.09;;;-7.34;100.00
53758;BME280;39674;59.860;30.672;2023-02-05T16:20:12;102502.00;;;-7.36;100.00
53758;BME280;39674;59.860;30.672;2023-02-05T16:22:57;102504.75;;;-7.33;100.00
53758;BME280;39674;59.860;30.672;2023-02-05T16:25:40;102494.31;;;-7.36;100.00
53758;BME280;39674;59.860;30.672;2023-02-05T16:28:41;102498.88;;;-7.30;100.00
53758;BME280;39674;59.860;30.672;2023-02-05T16:31:47;102494.53;;;-7.31;100.00
53758;BME280;39674;59.860;30.672;2023-02-05T17:26:56;102430.53;;;-7.10;100.00
53758;BME280;39674;59.860;30.672;2023-02-05T17:29:26;102434.91;;;-7.07;100.00
53758;BME280;39674;59.860;30.672;2023-02-05T17:31:59;102423.03;;;-7.05;100.00
53758;BME280;39674;59.860;30.672;2023-02-05T17:34:45;102425.53;;;-7.07;100.00
53758;BME280;39674;59.860;30.672;2023-02-05T17:40:36;102419.69;;;-7.04;100.00
53758;BME280;39674;59.860;30.672;2023-02-05T17:43:24;102413.97;;;-6.99;100.00
53758;BME280;39674;59.860;30.672;2023-02-05T17:46:05;102412.44;;;-6.95;100.00
53758;BME280;39674;59.860;30.672;2023-02-05T17:48:42;102419.41;;;-6.93;100.00
53758;BME280;39674;59.860;30.672;2023-02-05T17:55:05;102412.50;;;-6.94;100.00
53758;BME280;39674;59.860;30.672;2023-02-05T17:57:47;102404.72;;;-6.95;100.00
53758;BME280;39674;59.860;30.672;2023-02-05T18:00:25;102402.06;;;-6.97;100.00
53758;BME280;39674;59.860;30.672;2023-02-05T18:03:05;102399.41;;;-6.98;100.00
53758;BME280;39674;59.860;30.672;2023-02-05T18:06:05;102396.91;;;-6.97;100.00
53758;BME280;39674;59.860;30.672;2023-02-05T18:08:37;102385.53;;;-7.02;100.00
53758;BME280;39674;59.860;30.672;2023-02-05T18:14:35;102380.69;;;-6.96;100.00
53758;BME280;39674;59.860;30.672;2023-02-05T18:17:20;102375.63;;;-6.94;100.00
53758;BME280;39674;59.860;30.672;2023-02-05T18:21:36;102376.22;;;-7.00;100.00
53758;BME280;39674;59.860;30.672;2023-02-05T18:23:16;102355.81;;;-6.97;100.00
53758;BME280;39674;59.860;30.672;2023-02-05T18:25:54;102363.53;;;-6.97;100.00
53758;BME280;39674;59.860;30.672;2023-02-05T18:38:54;102347.47;;;-6.93;100.00
53758;BME280;39674;59.860;30.672;2023-02-05T18:43:46;102340.09;;;-6.85;100.00
53758;BME280;39674;59.860;30.672;2023-02-05T19:00:40;102312.19;;;-6.77;100.00
53758;BME280;39674;59.860;30.672;2023-02-05T19:03:22;102313.81;;;-6.79;100.00
53758;BME280;39674;59.860;30.672;2023-02-05T19:06:38;102311.25;;;-6.79;100.00
53758;BME280;39674;59.860;30.672;2023-02-05T19:09:35;102300.13;;;-6.78;100.00
53758;BME280;39674;59.860;30.672;2023-02-05T19:12:29;102294.19;;;-6.77;100.00
